KPTS/PTS METAR and TAF weather

Enter ICAO airport designator
Station Type Date Time Source
KPTS METAR 2020/12/06 01:15 UTC NOAA

KPTS 060115Z AUTO 31004KT 10SM CLR 05/00 A3012 RMK AO2 T00500000


Station Type Date Time Source
KPTS Decoded METAR 2020/12/06 01:15 UTC NOAA

Station name not available
Dec 05, 2020 - 08:15 PM EST / 2020.12.06 0115 UTC
Wind: from the NW (310 degrees) at 5 MPH (4 KT):0
Visibility: 10 mile(s):0
Sky conditions: clear
Temperature: 41.0 F (5.0 C)
Dew Point: 32.0 F (0.0 C)
Relative Humidity: 70%
Pressure (altimeter): 30.12 in. Hg (1019 hPa)
ob: KPTS 060115Z AUTO 31004KT 10SM CLR 05/00 A3012 RMK AO2 T00500000
cycle: 1

Station Type Date Time Source
KPTS TAF UTC NOAA

Error!

Example: see airport list